sensor_id;sensor_type;location;lat;lon;timestamp;temperature;humidity
33368;DHT22;19724;51.114;13.906;2023-03-17T00:01:50;4.30;99.90
33368;DHT22;19724;51.114;13.906;2023-03-17T00:04:18;4.30;99.90
33368;DHT22;19724;51.114;13.906;2023-03-17T00:06:44;4.30;99.90
33368;DHT22;19724;51.114;13.906;2023-03-17T00:09:16;4.40;99.90
33368;DHT22;19724;51.114;13.906;2023-03-17T00:11:43;4.40;99.90
33368;DHT22;19724;51.114;13.906;2023-03-17T00:14:09;4.40;99.90
33368;DHT22;19724;51.114;13.906;2023-03-17T00:16:40;4.40;99.90
33368;DHT22;19724;51.114;13.906;2023-03-17T00:19:20;4.40;99.90
33368;DHT22;19724;51.114;13.906;2023-03-17T00:21:48;4.40;99.90
33368;DHT22;19724;51.114;13.906;2023-03-17T00:24:14;4.40;99.90
33368;DHT22;19724;51.114;13.906;2023-03-17T00:26:40;4.40;99.90
33368;DHT22;19724;51.114;13.906;2023-03-17T00:29:05;4.40;99.90
33368;DHT22;19724;51.114;13.906;2023-03-17T00:31:32;4.40;99.90
33368;DHT22;19724;51.114;13.906;2023-03-17T00:33:58;4.40;99.90
33368;DHT22;19724;51.114;13.906;2023-03-17T00:36:29;4.40;99.90
33368;DHT22;19724;51.114;13.906;2023-03-17T00:38:56;4.40;99.90
33368;DHT22;19724;51.114;13.906;2023-03-17T00:41:22;4.50;99.90
33368;DHT22;19724;51.114;13.906;2023-03-17T00:43:48;4.40;99.90
33368;DHT22;19724;51.114;13.906;2023-03-17T00:46:25;4.40;99.90
33368;DHT22;19724;51.114;13.906;2023-03-17T00:48:52;4.40;99.90
33368;DHT22;19724;51.114;13.906;2023-03-17T00:51:18;4.40;99.90
33368;DHT22;19724;51.114;13.906;2023-03-17T00:53:44;4.40;99.90
33368;DHT22;19724;51.114;13.906;2023-03-17T00:56:17;4.40;99.90
33368;DHT22;19724;51.114;13.906;2023-03-17T00:58:44;4.40;99.90
33368;DHT22;19724;51.114;13.906;2023-03-17T01:01:10;4.40;99.90
33368;DHT22;19724;51.114;13.906;2023-03-17T01:03:37;4.40;99.90
33368;DHT22;19724;51.114;13.906;2023-03-17T01:06:03;4.40;99.90
33368;DHT22;19724;51.114;13.906;2023-03-17T01:08:30;4.40;99.90
33368;DHT22;19724;51.114;13.906;2023-03-17T01:10:56;4.50;99.90
33368;DHT22;19724;51.114;13.906;2023-03-17T01:13:22;4.40;99.90
33368;DHT22;19724;51.114;13.906;2023-03-17T01:15:49;4.40;99.90
33368;DHT22;19724;51.114;13.906;2023-03-17T01:18:16;4.40;99.90
33368;DHT22;19724;51.114;13.906;2023-03-17T01:20:42;4.40;99.90
33368;DHT22;19724;51.114;13.906;2023-03-17T01:23:08;4.40;99.90
33368;DHT22;19724;51.114;13.906;2023-03-17T01:25:35;4.40;99.90
33368;DHT22;19724;51.114;13.906;2023-03-17T01:28:00;4.40;99.90
33368;DHT22;19724;51.114;13.906;2023-03-17T01:30:30;4.40;99.90
33368;DHT22;19724;51.114;13.906;2023-03-17T01:32:56;4.40;99.90
33368;DHT22;19724;51.114;13.906;2023-03-17T01:35:23;4.30;99.90
33368;DHT22;19724;51.114;13.906;2023-03-17T01:37:50;4.30;99.90
33368;DHT22;19724;51.114;13.906;2023-03-17T01:40:22;4.30;99.90
33368;DHT22;19724;51.114;13.906;2023-03-17T01:42:57;4.30;99.90
33368;DHT22;19724;51.114;13.906;2023-03-17T01:48:28;4.30;99.90
33368;DHT22;19724;51.114;13.906;2023-03-17T01:50:55;4.30;99.90
33368;DHT22;19724;51.114;13.906;2023-03-17T01:53:21;4.40;99.90
33368;DHT22;19724;51.114;13.906;2023-03-17T01:55:49;4.30;99.90
33368;DHT22;19724;51.114;13.906;2023-03-17T01:58:15;4.30;99.90
33368;DHT22;19724;51.114;13.906;2023-03-17T02:00:43;4.30;99.90
33368;DHT22;19724;51.114;13.906;2023-03-17T02:03:08;4.30;99.90
33368;DHT22;19724;51.114;13.906;2023-03-17T02:05:35;4.30;99.90
33368;DHT22;19724;51.114;13.906;2023-03-17T02:08:11;4.40;99.90
33368;DHT22;19724;51.114;13.906;2023-03-17T02:10:38;4.40;99.90
33368;DHT22;19724;51.114;13.906;2023-03-17T02:13:04;4.40;99.90
33368;DHT22;19724;51.114;13.906;2023-03-17T02:18:01;4.40;99.90
33368;DHT22;19724;51.114;13.906;2023-03-17T02:22:54;4.40;99.90
33368;DHT22;19724;51.114;13.906;2023-03-17T02:25:22;4.50;99.90
33368;DHT22;19724;51.114;13.906;2023-03-17T02:27:51;4.50;99.90
33368;DHT22;19724;51.114;13.906;2023-03-17T02:30:23;4.50;99.90
33368;DHT22;19724;51.114;13.906;2023-03-17T02:32:49;4.50;99.90
33368;DHT22;19724;51.114;13.906;2023-03-17T02:35:15;4.50;99.90
33368;DHT22;19724;51.114;13.906;2023-03-17T02:37:40;4.50;99.90
33368;DHT22;19724;51.114;13.906;2023-03-17T02:40:09;4.50;99.90
33368;DHT22;19724;51.114;13.906;2023-03-17T02:42:36;4.50;99.90
33368;DHT22;19724;51.114;13.906;2023-03-17T02:45:07;4.50;99.90
33368;DHT22;19724;51.114;13.906;2023-03-17T02:47:34;4.50;99.90
33368;DHT22;19724;51.114;13.906;2023-03-17T02:50:00;4.50;99.90
33368;DHT22;19724;51.114;13.906;2023-03-17T02:52:26;4.50;99.90
33368;DHT22;19724;51.114;13.906;2023-03-17T02:54:52;4.50;99.90
33368;DHT22;19724;51.114;13.906;2023-03-17T02:57:17;4.50;99.90
33368;DHT22;19724;51.114;13.906;2023-03-17T02:59:43;4.50;99.90
33368;DHT22;19724;51.114;13.906;2023-03-17T03:02:08;4.50;99.90
33368;DHT22;19724;51.114;13.906;2023-03-17T03:04:34;4.50;99.90
33368;DHT22;19724;51.114;13.906;2023-03-17T03:07:00;4.50;99.90
33368;DHT22;19724;51.114;13.906;2023-03-17T03:09:25;4.50;99.90
33368;DHT22;19724;51.114;13.906;2023-03-17T03:11:51;4.50;99.90
33368;DHT22;19724;51.114;13.906;2023-03-17T03:14:17;4.60;99.90
33368;DHT22;19724;51.114;13.906;2023-03-17T03:16:42;4.50;99.90
33368;DHT22;19724;51.114;13.906;2023-03-17T03:19:09;4.50;99.90
33368;DHT22;19724;51.114;13.906;2023-03-17T03:21:35;4.50;99.90
33368;DHT22;19724;51.114;13.906;2023-03-17T03:24:01;4.40;99.90
33368;DHT22;19724;51.114;13.906;2023-03-17T03:26:27;4.50;99.90
33368;DHT22;19724;51.114;13.906;2023-03-17T03:28:52;4.40;99.90
33368;DHT22;19724;51.114;13.906;2023-03-17T03:31:18;4.40;99.90
33368;DHT22;19724;51.114;13.906;2023-03-17T03:33:44;4.50;99.90
33368;DHT22;19724;51.114;13.906;2023-03-17T03:36:10;4.40;99.90
33368;DHT22;19724;51.114;13.906;2023-03-17T03:38:36;4.40;99.90
33368;DHT22;19724;51.114;13.906;2023-03-17T03:41:02;4.30;99.90
33368;DHT22;19724;51.114;13.906;2023-03-17T03:43:27;4.30;99.90
33368;DHT22;19724;51.114;13.906;2023-03-17T03:45:53;4.30;99.90
33368;DHT22;19724;51.114;13.906;2023-03-17T03:48:20;4.30;99.90
33368;DHT22;19724;51.114;13.906;2023-03-17T03:50:46;4.30;99.90
33368;DHT22;19724;51.114;13.906;2023-03-17T03:53:12;4.20;99.90
33368;DHT22;19724;51.114;13.906;2023-03-17T03:55:37;4.20;99.90
33368;DHT22;19724;51.114;13.906;2023-03-17T03:58:03;4.10;99.90
33368;DHT22;19724;51.114;13.906;2023-03-17T04:00:28;4.10;99.90
33368;DHT22;19724;51.114;13.906;2023-03-17T04:02:54;4.10;99.90
33368;DHT22;19724;51.114;13.906;2023-03-17T04:05:19;4.00;99.90
33368;DHT22;19724;51.114;13.906;2023-03-17T04:07:45;4.00;99.90
33368;DHT22;19724;51.114;13.906;2023-03-17T04:10:13;4.00;99.90
33368;DHT22;19724;51.114;13.906;2023-03-17T04:12:40;4.00;99.90
33368;DHT22;19724;51.114;13.906;2023-03-17T04:15:07;4.00;99.90
33368;DHT22;19724;51.114;13.906;2023-03-17T04:17:33;3.90;99.90
33368;DHT22;19724;51.114;13.906;2023-03-17T04:19:59;3.90;99.90
33368;DHT22;19724;51.114;13.906;2023-03-17T04:22:24;3.90;99.90
33368;DHT22;19724;51.114;13.906;2023-03-17T04:24:50;3.90;99.90
33368;DHT22;19724;51.114;13.906;2023-03-17T04:27:16;3.90;99.90
33368;DHT22;19724;51.114;13.906;2023-03-17T04:29:42;3.90;99.90
33368;DHT22;19724;51.114;13.906;2023-03-17T04:32:09;3.90;99.90
33368;DHT22;19724;51.114;13.906;2023-03-17T04:34:35;3.90;99.90
33368;DHT22;19724;51.114;13.906;2023-03-17T04:37:01;3.90;99.90
33368;DHT22;19724;51.114;13.906;2023-03-17T04:39:26;3.80;99.90
33368;DHT22;19724;51.114;13.906;2023-03-17T04:41:52;3.90;99.90
33368;DHT22;19724;51.114;13.906;2023-03-17T04:44:17;3.80;99.90
33368;DHT22;19724;51.114;13.906;2023-03-17T04:46:43;3.80;99.90
33368;DHT22;19724;51.114;13.906;2023-03-17T04:49:08;3.80;99.90
33368;DHT22;19724;51.114;13.906;2023-03-17T04:51:34;3.80;99.90
33368;DHT22;19724;51.114;13.906;2023-03-17T04:54:01;3.80;99.90
33368;DHT22;19724;51.114;13.906;2023-03-17T04:56:27;3.80;99.90
33368;DHT22;19724;51.114;13.906;2023-03-17T04:58:53;3.70;99.90
33368;DHT22;19724;51.114;13.906;2023-03-17T05:01:19;3.70;99.90
33368;DHT22;19724;51.114;13.906;2023-03-17T05:03:44;3.70;99.90
33368;DHT22;19724;51.114;13.906;2023-03-17T05:06:10;3.70;99.90
33368;DHT22;19724;51.114;13.906;2023-03-17T05:08:35;3.60;99.90
33368;DHT22;19724;51.114;13.906;2023-03-17T05:11:01;3.60;99.90
33368;DHT22;19724;51.114;13.906;2023-03-17T05:13:26;3.60;99.90
33368;DHT22;19724;51.114;13.906;2023-03-17T05:15:53;3.50;99.90
33368;DHT22;19724;51.114;13.906;2023-03-17T05:18:21;3.60;99.90
33368;DHT22;19724;51.114;13.906;2023-03-17T05:20:48;3.50;99.90
33368;DHT22;19724;51.114;13.906;2023-03-17T05:23:13;3.50;99.90
33368;DHT22;19724;51.114;13.906;2023-03-17T05:25:39;3.50;99.90
33368;DHT22;19724;51.114;13.906;2023-03-17T05:28:06;3.50;99.90
33368;DHT22;19724;51.114;13.906;2023-03-17T05:30:32;3.50;99.90
33368;DHT22;19724;51.114;13.906;2023-03-17T05:32:58;3.50;99.90
33368;DHT22;19724;51.114;13.906;2023-03-17T05:35:25;3.50;99.90
33368;DHT22;19724;51.114;13.906;2023-03-17T05:37:50;3.50;99.90
33368;DHT22;19724;51.114;13.906;2023-03-17T05:40:16;3.50;99.90
33368;DHT22;19724;51.114;13.906;2023-03-17T05:42:42;3.50;99.90
33368;DHT22;19724;51.114;13.906;2023-03-17T05:45:08;3.50;99.90
33368;DHT22;19724;51.114;13.906;2023-03-17T05:47:35;3.50;99.90
33368;DHT22;19724;51.114;13.906;2023-03-17T05:50:01;3.50;99.90
33368;DHT22;19724;51.114;13.906;2023-03-17T05:52:28;3.50;99.90
33368;DHT22;19724;51.114;13.906;2023-03-17T05:54:53;3.60;99.90
33368;DHT22;19724;51.114;13.906;2023-03-17T05:57:20;3.50;99.90
33368;DHT22;19724;51.114;13.906;2023-03-17T05:59:46;3.60;99.90
33368;DHT22;19724;51.114;13.906;2023-03-17T06:02:12;3.60;99.90
33368;DHT22;19724;51.114;13.906;2023-03-17T06:04:38;3.60;99.90
33368;DHT22;19724;51.114;13.906;2023-03-17T06:07:04;3.60;99.90
33368;DHT22;19724;51.114;13.906;2023-03-17T06:09:32;3.70;99.90
33368;DHT22;19724;51.114;13.906;2023-03-17T06:11:58;3.70;99.90
33368;DHT22;19724;51.114;13.906;2023-03-17T06:14:24;3.70;99.90
33368;DHT22;19724;51.114;13.906;2023-03-17T06:16:50;3.70;99.90
33368;DHT22;19724;51.114;13.906;2023-03-17T06:19:15;3.80;99.90
33368;DHT22;19724;51.114;13.906;2023-03-17T06:21:41;3.80;99.90
33368;DHT22;19724;51.114;13.906;2023-03-17T06:24:08;3.80;99.90
33368;DHT22;19724;51.114;13.906;2023-03-17T06:26:34;3.80;99.90
33368;DHT22;19724;51.114;13.906;2023-03-17T06:28:59;3.90;99.90
33368;DHT22;19724;51.114;13.906;2023-03-17T06:31:25;3.90;99.90
33368;DHT22;19724;51.114;13.906;2023-03-17T06:33:51;3.90;99.90
33368;DHT22;19724;51.114;13.906;2023-03-17T06:36:17;4.00;99.90
33368;DHT22;19724;51.114;13.906;2023-03-17T06:38:43;4.00;99.90
33368;DHT22;19724;51.114;13.906;2023-03-17T06:41:08;4.10;99.90
33368;DHT22;19724;51.114;13.906;2023-03-17T06:43:34;4.10;99.90
33368;DHT22;19724;51.114;13.906;2023-03-17T06:46:00;4.10;99.90
33368;DHT22;19724;51.114;13.906;2023-03-17T06:48:26;4.20;99.90
33368;DHT22;19724;51.114;13.906;2023-03-17T06:50:52;4.20;99.90
33368;DHT22;19724;51.114;13.906;2023-03-17T06:53:18;4.30;99.90
33368;DHT22;19724;51.114;13.906;2023-03-17T06:55:43;4.40;99.90
33368;DHT22;19724;51.114;13.906;2023-03-17T06:58:09;4.50;99.90
33368;DHT22;19724;51.114;13.906;2023-03-17T07:00:35;4.60;99.90
33368;DHT22;19724;51.114;13.906;2023-03-17T07:03:03;4.70;99.90
33368;DHT22;19724;51.114;13.906;2023-03-17T07:05:30;4.80;99.90
33368;DHT22;19724;51.114;13.906;2023-03-17T07:07:55;4.80;99.90
33368;DHT22;19724;51.114;13.906;2023-03-17T07:10:21;4.90;99.90
33368;DHT22;19724;51.114;13.906;2023-03-17T07:12:48;5.00;99.90
33368;DHT22;19724;51.114;13.906;2023-03-17T07:15:14;5.10;99.90
33368;DHT22;19724;51.114;13.906;2023-03-17T07:17:40;5.20;99.90
33368;DHT22;19724;51.114;13.906;2023-03-17T07:20:06;5.30;99.90
33368;DHT22;19724;51.114;13.906;2023-03-17T07:22:31;5.40;99.90
33368;DHT22;19724;51.114;13.906;2023-03-17T07:24:57;5.50;99.90
33368;DHT22;19724;51.114;13.906;2023-03-17T07:27:23;5.60;99.90
33368;DHT22;19724;51.114;13.906;2023-03-17T07:29:51;5.70;99.90
33368;DHT22;19724;51.114;13.906;2023-03-17T07:32:16;5.80;99.90
33368;DHT22;19724;51.114;13.906;2023-03-17T07:34:42;5.90;99.90
33368;DHT22;19724;51.114;13.906;2023-03-17T07:37:07;6.10;99.90
33368;DHT22;19724;51.114;13.906;2023-03-17T07:39:34;6.20;99.90
33368;DHT22;19724;51.114;13.906;2023-03-17T07:42:00;6.40;99.90
33368;DHT22;19724;51.114;13.906;2023-03-17T07:44:25;6.50;99.90
33368;DHT22;19724;51.114;13.906;2023-03-17T07:46:52;6.50;99.20
33368;DHT22;19724;51.114;13.906;2023-03-17T07:49:18;6.50;99.50
33368;DHT22;19724;51.114;13.906;2023-03-17T07:51:43;6.50;99.50
33368;DHT22;19724;51.114;13.906;2023-03-17T07:54:10;6.50;99.10
33368;DHT22;19724;51.114;13.906;2023-03-17T07:56:37;6.40;98.00
33368;DHT22;19724;51.114;13.906;2023-03-17T07:59:02;6.50;97.90
33368;DHT22;19724;51.114;13.906;2023-03-17T08:01:28;6.40;96.90
33368;DHT22;19724;51.114;13.906;2023-03-17T08:03:55;6.30;96.40
33368;DHT22;19724;51.114;13.906;2023-03-17T08:06:21;6.30;96.90
33368;DHT22;19724;51.114;13.906;2023-03-17T08:08:48;6.30;97.00
33368;DHT22;19724;51.114;13.906;2023-03-17T08:11:14;6.40;96.80
33368;DHT22;19724;51.114;13.906;2023-03-17T08:13:40;6.30;97.40
33368;DHT22;19724;51.114;13.906;2023-03-17T08:16:05;6.30;96.50
33368;DHT22;19724;51.114;13.906;2023-03-17T08:18:31;6.40;96.30
33368;DHT22;19724;51.114;13.906;2023-03-17T08:20:57;6.40;96.70
33368;DHT22;19724;51.114;13.906;2023-03-17T08:23:23;6.50;96.30
33368;DHT22;19724;51.114;13.906;2023-03-17T08:25:49;6.70;96.10
33368;DHT22;19724;51.114;13.906;2023-03-17T08:28:15;6.90;96.40
33368;DHT22;19724;51.114;13.906;2023-03-17T08:30:41;7.20;95.90
33368;DHT22;19724;51.114;13.906;2023-03-17T08:33:07;7.50;95.80
33368;DHT22;19724;51.114;13.906;2023-03-17T08:35:33;7.70;96.10
33368;DHT22;19724;51.114;13.906;2023-03-17T08:38:00;8.00;94.40
33368;DHT22;19724;51.114;13.906;2023-03-17T08:40:25;8.10;93.80
33368;DHT22;19724;51.114;13.906;2023-03-17T08:42:51;8.30;93.20
33368;DHT22;19724;51.114;13.906;2023-03-17T08:45:17;8.50;93.20
33368;DHT22;19724;51.114;13.906;2023-03-17T08:47:43;8.70;92.80
33368;DHT22;19724;51.114;13.906;2023-03-17T08:50:15;8.80;91.60
33368;DHT22;19724;51.114;13.906;2023-03-17T08:52:41;8.90;91.10
33368;DHT22;19724;51.114;13.906;2023-03-17T08:55:07;9.00;90.90
33368;DHT22;19724;51.114;13.906;2023-03-17T08:57:33;9.00;88.50
33368;DHT22;19724;51.114;13.906;2023-03-17T08:59:59;9.10;88.90
33368;DHT22;19724;51.114;13.906;2023-03-17T09:02:25;9.20;88.70
33368;DHT22;19724;51.114;13.906;2023-03-17T09:04:50;9.50;88.10
33368;DHT22;19724;51.114;13.906;2023-03-17T09:07:16;9.60;86.40
33368;DHT22;19724;51.114;13.906;2023-03-17T09:09:41;9.70;84.70
33368;DHT22;19724;51.114;13.906;2023-03-17T09:12:07;9.70;83.30
33368;DHT22;19724;51.114;13.906;2023-03-17T09:14:34;9.90;84.80
33368;DHT22;19724;51.114;13.906;2023-03-17T09:17:00;9.90;82.90
33368;DHT22;19724;51.114;13.906;2023-03-17T09:19:25;10.20;84.10
33368;DHT22;19724;51.114;13.906;2023-03-17T09:21:51;10.30;80.70
33368;DHT22;19724;51.114;13.906;2023-03-17T09:24:18;10.50;79.00
33368;DHT22;19724;51.114;13.906;2023-03-17T09:26:43;10.60;81.20
33368;DHT22;19724;51.114;13.906;2023-03-17T09:29:09;10.80;79.50
33368;DHT22;19724;51.114;13.906;2023-03-17T09:31:35;10.90;76.40
33368;DHT22;19724;51.114;13.906;2023-03-17T09:34:02;10.90;75.70
33368;DHT22;19724;51.114;13.906;2023-03-17T09:36:29;11.20;76.00
33368;DHT22;19724;51.114;13.906;2023-03-17T09:38:54;11.40;76.60
33368;DHT22;19724;51.114;13.906;2023-03-17T09:44:04;11.70;73.40
33368;DHT22;19724;51.114;13.906;2023-03-17T09:46:52;11.80;71.00
33368;DHT22;19724;51.114;13.906;2023-03-17T09:49:24;11.90;70.60
33368;DHT22;19724;51.114;13.906;2023-03-17T09:51:53;12.10;71.50
33368;DHT22;19724;51.114;13.906;2023-03-17T09:54:34;12.30;70.70
33368;DHT22;19724;51.114;13.906;2023-03-17T09:57:09;12.60;70.70
33368;DHT22;19724;51.114;13.906;2023-03-17T09:59:40;12.90;70.60
33368;DHT22;19724;51.114;13.906;2023-03-17T10:04:51;13.30;68.70
33368;DHT22;19724;51.114;13.906;2023-03-17T10:07:27;13.60;66.90
33368;DHT22;19724;51.114;13.906;2023-03-17T10:10:04;13.60;63.10
33368;DHT22;19724;51.114;13.906;2023-03-17T10:15:33;13.60;62.10
33368;DHT22;19724;51.114;13.906;2023-03-17T10:18:11;13.70;61.30
33368;DHT22;19724;51.114;13.906;2023-03-17T10:20:47;13.80;60.00
33368;DHT22;19724;51.114;13.906;2023-03-17T10:23:15;13.90;59.80
33368;DHT22;19724;51.114;13.906;2023-03-17T10:25:41;13.90;58.60
33368;DHT22;19724;51.114;13.906;2023-03-17T10:28:20;14.10;59.90
33368;DHT22;19724;51.114;13.906;2023-03-17T10:30:47;14.30;58.20
33368;DHT22;19724;51.114;13.906;2023-03-17T10:33:13;14.40;58.40
33368;DHT22;19724;51.114;13.906;2023-03-17T10:35:39;14.50;57.70
33368;DHT22;19724;51.114;13.906;2023-03-17T10:38:25;14.70;57.00
33368;DHT22;19724;51.114;13.906;2023-03-17T10:40:57;14.70;56.80
33368;DHT22;19724;51.114;13.906;2023-03-17T10:43:28;14.90;57.50
33368;DHT22;19724;51.114;13.906;2023-03-17T10:46:19;14.90;56.30
33368;DHT22;19724;51.114;13.906;2023-03-17T10:48:57;15.00;56.00
33368;DHT22;19724;51.114;13.906;2023-03-17T10:51:30;15.30;56.00
33368;DHT22;19724;51.114;13.906;2023-03-17T10:53:59;15.60;55.60
33368;DHT22;19724;51.114;13.906;2023-03-17T10:56:27;15.90;54.90
33368;DHT22;19724;51.114;13.906;2023-03-17T10:58:55;16.00;53.40
33368;DHT22;19724;51.114;13.906;2023-03-17T11:01:29;16.00;53.10
33368;DHT22;19724;51.114;13.906;2023-03-17T11:03:58;16.10;53.80
33368;DHT22;19724;51.114;13.906;2023-03-17T11:06:47;16.40;53.00
33368;DHT22;19724;51.114;13.906;2023-03-17T11:09:16;16.50;51.80
33368;DHT22;19724;51.114;13.906;2023-03-17T11:11:47;16.70;50.70
33368;DHT22;19724;51.114;13.906;2023-03-17T11:14:15;16.70;50.00
33368;DHT22;19724;51.114;13.906;2023-03-17T11:19:18;16.70;48.10
33368;DHT22;19724;51.114;13.906;2023-03-17T11:24:30;17.00;47.00
33368;DHT22;19724;51.114;13.906;2023-03-17T11:27:05;16.70;46.70
33368;DHT22;19724;51.114;13.906;2023-03-17T11:30:00;16.60;47.40
33368;DHT22;19724;51.114;13.906;2023-03-17T11:32:33;16.80;47.20
33368;DHT22;19724;51.114;13.906;2023-03-17T11:40:38;17.00;47.90
33368;DHT22;19724;51.114;13.906;2023-03-17T11:43:08;17.30;48.90
33368;DHT22;19724;51.114;13.906;2023-03-17T11:49:12;17.50;46.50
33368;DHT22;19724;51.114;13.906;2023-03-17T11:52:18;17.70;46.50
33368;DHT22;19724;51.114;13.906;2023-03-17T11:57:24;17.60;45.90
33368;DHT22;19724;51.114;13.906;2023-03-17T12:00:19;17.50;45.60
33368;DHT22;19724;51.114;13.906;2023-03-17T12:02:53;17.30;45.00
33368;DHT22;19724;51.114;13.906;2023-03-17T12:05:24;17.20;45.30
33368;DHT22;19724;51.114;13.906;2023-03-17T12:08:20;17.60;45.70
33368;DHT22;19724;51.114;13.906;2023-03-17T12:10:53;17.70;45.80
33368;DHT22;19724;51.114;13.906;2023-03-17T12:13:36;17.70;44.90
33368;DHT22;19724;51.114;13.906;2023-03-17T12:16:08;17.50;45.00
33368;DHT22;19724;51.114;13.906;2023-03-17T12:18:40;17.60;45.30
33368;DHT22;19724;51.114;13.906;2023-03-17T12:29:46;18.10;44.60
33368;DHT22;19724;51.114;13.906;2023-03-17T12:32:18;17.90;44.50
33368;DHT22;19724;51.114;13.906;2023-03-17T12:34:59;18.10;44.40
33368;DHT22;19724;51.114;13.906;2023-03-17T12:37:27;17.90;44.30
33368;DHT22;19724;51.114;13.906;2023-03-17T12:48:11;18.50;43.60
33368;DHT22;19724;51.114;13.906;2023-03-17T12:56:12;18.40;43.50
33368;DHT22;19724;51.114;13.906;2023-03-17T12:58:48;18.40;43.00
33368;DHT22;19724;51.114;13.906;2023-03-17T13:04:14;17.90;43.70
33368;DHT22;19724;51.114;13.906;2023-03-17T13:06:44;17.80;43.90
33368;DHT22;19724;51.114;13.906;2023-03-17T13:11:52;18.10;43.80
33368;DHT22;19724;51.114;13.906;2023-03-17T13:14:27;18.00;43.10
33368;DHT22;19724;51.114;13.906;2023-03-17T13:17:04;17.90;44.20
33368;DHT22;19724;51.114;13.906;2023-03-17T13:22:37;18.00;43.90
33368;DHT22;19724;51.114;13.906;2023-03-17T13:25:29;17.60;44.10
33368;DHT22;19724;51.114;13.906;2023-03-17T13:28:15;17.30;43.80
33368;DHT22;19724;51.114;13.906;2023-03-17T13:30:55;17.10;44.10
33368;DHT22;19724;51.114;13.906;2023-03-17T13:33:29;17.30;45.20
33368;DHT22;19724;51.114;13.906;2023-03-17T13:41:41;17.50;44.60
33368;DHT22;19724;51.114;13.906;2023-03-17T13:46:50;17.40;46.00
33368;DHT22;19724;51.114;13.906;2023-03-17T13:52:06;17.30;45.70
33368;DHT22;19724;51.114;13.906;2023-03-17T13:54:39;17.40;45.50
33368;DHT22;19724;51.114;13.906;2023-03-17T13:57:28;17.20;45.30
33368;DHT22;19724;51.114;13.906;2023-03-17T14:00:02;17.10;45.40
33368;DHT22;19724;51.114;13.906;2023-03-17T14:02:32;16.90;45.50
33368;DHT22;19724;51.114;13.906;2023-03-17T14:05:04;16.80;45.60
33368;DHT22;19724;51.114;13.906;2023-03-17T14:07:55;16.90;45.70
33368;DHT22;19724;51.114;13.906;2023-03-17T14:10:25;17.00;46.00
33368;DHT22;19724;51.114;13.906;2023-03-17T14:13:02;17.00;46.00
33368;DHT22;19724;51.114;13.906;2023-03-17T14:15:44;16.90;45.70
33368;DHT22;19724;51.114;13.906;2023-03-17T14:18:18;16.80;45.90
33368;DHT22;19724;51.114;13.906;2023-03-17T14:20:55;16.70;45.80
33368;DHT22;19724;51.114;13.906;2023-03-17T14:23:22;16.50;46.30
33368;DHT22;19724;51.114;13.906;2023-03-17T14:25:48;16.30;46.20
33368;DHT22;19724;51.114;13.906;2023-03-17T14:28:16;16.40;46.60
33368;DHT22;19724;51.114;13.906;2023-03-17T14:30:51;16.60;46.60
33368;DHT22;19724;51.114;13.906;2023-03-17T14:33:32;16.60;46.50
33368;DHT22;19724;51.114;13.906;2023-03-17T14:36:02;16.80;46.30
33368;DHT22;19724;51.114;13.906;2023-03-17T14:38:35;17.00;46.30
33368;DHT22;19724;51.114;13.906;2023-03-17T14:41:04;17.00;46.10
33368;DHT22;19724;51.114;13.906;2023-03-17T14:43:32;17.00;46.00
33368;DHT22;19724;51.114;13.906;2023-03-17T14:46:29;17.10;46.40
33368;DHT22;19724;51.114;13.906;2023-03-17T14:51:40;17.00;46.10
33368;DHT22;19724;51.114;13.906;2023-03-17T14:56:40;16.50;46.60
33368;DHT22;19724;51.114;13.906;2023-03-17T14:59:22;16.30;47.00
33368;DHT22;19724;51.114;13.906;2023-03-17T15:01:56;16.10;47.40
33368;DHT22;19724;51.114;13.906;2023-03-17T15:04:32;16.20;48.30
33368;DHT22;19724;51.114;13.906;2023-03-17T15:07:03;16.30;48.50
33368;DHT22;19724;51.114;13.906;2023-03-17T15:09:39;16.20;48.00
33368;DHT22;19724;51.114;13.906;2023-03-17T15:12:21;16.20;48.30
33368;DHT22;19724;51.114;13.906;2023-03-17T15:15:01;16.10;47.80
33368;DHT22;19724;51.114;13.906;2023-03-17T15:17:32;15.90;47.90
33368;DHT22;19724;51.114;13.906;2023-03-17T15:20:18;15.90;48.40
33368;DHT22;19724;51.114;13.906;2023-03-17T15:22:48;15.80;48.10
33368;DHT22;19724;51.114;13.906;2023-03-17T15:27:56;15.80;49.00
33368;DHT22;19724;51.114;13.906;2023-03-17T15:30:21;15.60;48.80
33368;DHT22;19724;51.114;13.906;2023-03-17T15:33:01;15.60;48.80
33368;DHT22;19724;51.114;13.906;2023-03-17T15:35:27;15.50;48.50
33368;DHT22;19724;51.114;13.906;2023-03-17T15:37:53;15.20;48.50
33368;DHT22;19724;51.114;13.906;2023-03-17T15:40:20;15.20;48.70
33368;DHT22;19724;51.114;13.906;2023-03-17T15:42:45;14.90;48.70
33368;DHT22;19724;51.114;13.906;2023-03-17T15:45:14;14.80;49.20
33368;DHT22;19724;51.114;13.906;2023-03-17T15:47:41;14.60;49.60
33368;DHT22;19724;51.114;13.906;2023-03-17T15:50:23;14.40;49.90
33368;DHT22;19724;51.114;13.906;2023-03-17T15:52:49;14.30;50.70
33368;DHT22;19724;51.114;13.906;2023-03-17T15:55:22;14.20;51.00
33368;DHT22;19724;51.114;13.906;2023-03-17T15:57:48;14.10;51.30
33368;DHT22;19724;51.114;13.906;2023-03-17T16:00:16;14.10;51.70
33368;DHT22;19724;51.114;13.906;2023-03-17T16:02:42;14.10;52.00
33368;DHT22;19724;51.114;13.906;2023-03-17T16:08:14;13.80;52.70
33368;DHT22;19724;51.114;13.906;2023-03-17T16:10:40;13.70;52.30
33368;DHT22;19724;51.114;13.906;2023-03-17T16:13:06;13.50;52.60
33368;DHT22;19724;51.114;13.906;2023-03-17T16:15:42;13.40;52.90
33368;DHT22;19724;51.114;13.906;2023-03-17T16:18:16;13.30;53.30
33368;DHT22;19724;51.114;13.906;2023-03-17T16:20:44;13.30;53.60
33368;DHT22;19724;51.114;13.906;2023-03-17T16:23:19;13.20;53.70
33368;DHT22;19724;51.114;13.906;2023-03-17T16:25:46;13.10;53.70
33368;DHT22;19724;51.114;13.906;2023-03-17T16:28:20;13.10;54.00
33368;DHT22;19724;51.114;13.906;2023-03-17T16:30:47;13.00;54.20
33368;DHT22;19724;51.114;13.906;2023-03-17T16:35:46;12.90;54.50
33368;DHT22;19724;51.114;13.906;2023-03-17T16:38:18;12.80;54.70
33368;DHT22;19724;51.114;13.906;2023-03-17T16:40:47;12.70;54.90
33368;DHT22;19724;51.114;13.906;2023-03-17T16:43:26;12.60;55.10
33368;DHT22;19724;51.114;13.906;2023-03-17T16:45:54;12.50;55.30
33368;DHT22;19724;51.114;13.906;2023-03-17T16:48:20;12.50;55.50
33368;DHT22;19724;51.114;13.906;2023-03-17T16:50:45;12.40;55.70
33368;DHT22;19724;51.114;13.906;2023-03-17T16:53:11;12.40;56.00
33368;DHT22;19724;51.114;13.906;2023-03-17T16:55:38;12.30;56.30
33368;DHT22;19724;51.114;13.906;2023-03-17T16:58:17;12.20;56.50
33368;DHT22;19724;51.114;13.906;2023-03-17T17:00:44;12.20;56.90
33368;DHT22;19724;51.114;13.906;2023-03-17T17:03:10;12.10;56.90
33368;DHT22;19724;51.114;13.906;2023-03-17T17:05:36;12.10;57.20